CYMX/YMX METAR and TAF weather

Enter ICAO airport designator
Station Type Date Time Source
CYMX METAR 2018/07/21 04:00 UTC NOAA

CYMX 210400Z 01004KT 25SM SKC 20/16 A3006 RMK SLP180 DENSITY ALT 800FT


Station Type Date Time Source
CYMX Decoded METAR 2018/07/21 04:00 UTC NOAA

Montreal / Mirabel, Canada (CYMX) 45-41N 074-02W
Jul 21, 2018 - 12:00 AM EDT / 2018.07.21 0400 UTC
Wind: from the N (010 degrees) at 5 MPH (4 KT):0
Visibility: 25 mile(s):0
Sky conditions: clear
Temperature: 68 F (20 C)
Dew Point: 60 F (16 C)
Relative Humidity: 77%
Pressure (altimeter): 30.06 in. Hg (1017 hPa)
ob: CYMX 210400Z 01004KT 25SM SKC 20/16 A3006 RMK SLP180 DENSITY ALT 800FT
cycle: 4

Station Type Date Time Source
CYMX TAF 2018/07/20 18:42 UTC NOAA

TAF CYMX 201738Z 2018/2118 14005KT P6SM SKC
FM210100 VRB03KT P6SM SKC
BECMG 2115/2117 10010KT
RMK NXT FCST BY 210000Z


Example: see airport list